createdAt,value
2022-08-01T00:00:37.993Z,98212.63
2022-08-01T00:03:05.516Z,98210.78
2022-08-01T00:05:32.990Z,98210.19
2022-08-01T00:08:00.273Z,98207.53
2022-08-01T00:10:27.396Z,98196.75
2022-08-01T00:12:54.494Z,98217.03
2022-08-01T00:15:21.649Z,98213.25
2022-08-01T00:17:48.647Z,98212.94
2022-08-01T00:20:16.079Z,98211.88
2022-08-01T00:22:43.156Z,98218.91
2022-08-01T00:25:10.683Z,98211.91
2022-08-01T00:27:38.019Z,98212.69
2022-08-01T00:30:13.401Z,98218.66
2022-08-01T00:32:45.161Z,98220.56
2022-08-01T00:35:12.573Z,98229.44
2022-08-01T00:37:39.569Z,98224.34
2022-08-01T00:40:07.917Z,98222.16
2022-08-01T00:42:36.345Z,98218.13
2022-08-01T00:45:06.893Z,98224.06
2022-08-01T00:47:33.980Z,98221.91
2022-08-01T00:50:00.959Z,98223.25
2022-08-01T00:52:28.222Z,98219.47
2022-08-01T00:54:55.226Z,98231.66
2022-08-01T00:58:02.858Z,98228.38
2022-08-01T01:00:14.458Z,98230.25
2022-08-01T01:02:42.502Z,98221.91
2022-08-01T01:05:09.929Z,98232.44
2022-08-01T01:08:00.821Z,98228.16
2022-08-01T01:10:47.763Z,98231.63
2022-08-01T01:13:26.369Z,98233.25
2022-08-01T01:16:06.211Z,98235.94
2022-08-01T01:18:45.065Z,98232.97
2022-08-01T01:21:24.836Z,98234.56
2022-08-01T01:24:29.751Z,98231.34
2022-08-01T01:27:03.229Z,98237.28
2022-08-01T01:29:58.860Z,98232.41
2022-08-01T01:32:37.594Z,98235.66
2022-08-01T01:35:12.132Z,98237.28
2022-08-01T01:37:41.455Z,98240.50
2022-08-01T01:40:11.145Z,98233.22
2022-08-01T01:42:39.858Z,98245.38
2022-08-01T01:45:08.241Z,98246.38
2022-08-01T01:47:37.576Z,98246.91
2022-08-01T01:50:07.538Z,98236.97
2022-08-01T01:52:35.862Z,98240.38
2022-08-01T01:55:07.315Z,98242.75
2022-08-01T01:57:37.587Z,98243.69
2022-08-01T02:00:07.599Z,98247.78
2022-08-01T02:02:37.263Z,98250.22
2022-08-01T02:05:09.700Z,98248.09
2022-08-01T02:07:38.049Z,98239.16
2022-08-01T02:10:06.696Z,98242.91
2022-08-01T02:12:37.865Z,98247.03
2022-08-01T02:15:07.062Z,98246.38
2022-08-01T02:17:43.393Z,98237.94
2022-08-01T02:20:11.748Z,98248.84
2022-08-01T02:22:48.743Z,98246.03
2022-08-01T02:25:27.490Z,98246.34
2022-08-01T02:28:04.757Z,98253.50
2022-08-01T02:30:36.329Z,98254.72
2022-08-01T02:33:16.076Z,98260.41
2022-08-01T02:36:32.513Z,98254.47
2022-08-01T02:38:41.895Z,98261.88
2022-08-01T02:41:22.206Z,98256.53
2022-08-01T02:43:58.927Z,98274.25
2022-08-01T02:46:36.468Z,98277.28
2022-08-01T02:49:06.976Z,98274.25
2022-08-01T02:51:35.712Z,98278.00
2022-08-01T02:54:06.356Z,98278.59
2022-08-01T02:56:37.387Z,98282.31
2022-08-01T02:59:16.626Z,98285.25
2022-08-01T03:01:50.145Z,98287.34
2022-08-01T03:04:19.547Z,98284.09
2022-08-01T03:06:48.202Z,98285.22
2022-08-01T03:09:17.029Z,98274.41
2022-08-01T03:11:45.466Z,98276.81
2022-08-01T03:14:14.117Z,98280.84
2022-08-01T03:16:44.816Z,98273.81
2022-08-01T03:19:13.578Z,98272.91
2022-08-01T03:21:44.296Z,98276.72
2022-08-01T03:24:12.999Z,98280.44
2022-08-01T03:26:42.695Z,98279.44
2022-08-01T03:29:20.845Z,98281.13
2022-08-01T03:31:53.374Z,98287.22
2022-08-01T03:34:24.138Z,98287.22
2022-08-01T03:37:04.734Z,98283.47
2022-08-01T03:39:48.525Z,98286.19
2022-08-01T03:42:24.729Z,98282.13
2022-08-01T03:45:00.761Z,98280.97
2022-08-01T03:47:33.258Z,98290.97
2022-08-01T03:50:02.800Z,98294.91
2022-08-01T03:52:33.272Z,98290.50
2022-08-01T03:55:08.056Z,98295.44
2022-08-01T03:57:37.155Z,98295.19
2022-08-01T04:00:08.938Z,98290.88
2022-08-01T04:02:43.288Z,98290.53
2022-08-01T04:05:13.889Z,98292.94
2022-08-01T04:07:41.348Z,98297.91
2022-08-01T04:10:09.207Z,98302.84
2022-08-01T04:12:36.470Z,98299.03
2022-08-01T04:15:04.802Z,98301.47
2022-08-01T04:17:34.785Z,98300.41
2022-08-01T04:20:01.774Z,98304.91
2022-08-01T04:22:29.076Z,98301.66
2022-08-01T04:24:58.741Z,98298.53
2022-08-01T04:27:50.920Z,98301.56
2022-08-01T04:30:23.485Z,98306.06
2022-08-01T04:32:52.141Z,98303.38
2022-08-01T04:35:23.210Z,98314.56
2022-08-01T04:38:11.124Z,98312.13
2022-08-01T04:40:39.375Z,98305.22
2022-08-01T04:43:06.859Z,98308.38
2022-08-01T04:45:35.387Z,98315.41
2022-08-01T04:48:03.281Z,98308.88
2022-08-01T04:50:30.406Z,98314.22
2022-08-01T04:52:58.477Z,98313.97
2022-08-01T04:55:25.826Z,98314.78
2022-08-01T04:57:52.789Z,98317.97
2022-08-01T05:00:19.772Z,98317.22
2022-08-01T05:02:47.677Z,98317.22
2022-08-01T05:05:15.801Z,98305.94
2022-08-01T05:07:45.114Z,98307.75
2022-08-01T05:10:13.126Z,98309.28
2022-08-01T05:12:40.119Z,98309.09
2022-08-01T05:15:13.120Z,98301.47
2022-08-01T05:17:43.322Z,98304.22
2022-08-01T05:20:12.557Z,98300.44
2022-08-01T05:22:40.203Z,98297.75
2022-08-01T05:25:08.007Z,98309.28
2022-08-01T05:27:40.240Z,98304.84
2022-08-01T05:30:09.553Z,98316.56
2022-08-01T05:32:37.042Z,98316.34
2022-08-01T05:35:04.833Z,98318.22
2022-08-01T05:37:31.953Z,98316.66
2022-08-01T05:39:58.929Z,98319.59
2022-08-01T05:42:26.102Z,98312.31
2022-08-01T05:44:53.251Z,98326.28
2022-08-01T05:47:20.464Z,98322.53
2022-08-01T05:49:47.558Z,98324.13
2022-08-01T05:52:15.035Z,98319.41
2022-08-01T05:54:42.116Z,98313.25
2022-08-01T05:57:09.181Z,98316.53
2022-08-01T05:59:38.280Z,98318.66
2022-08-01T06:02:05.702Z,98320.19
2022-08-01T06:04:32.878Z,98327.38
2022-08-01T06:06:59.967Z,98331.72
2022-08-01T06:09:26.943Z,98326.72
2022-08-01T06:11:54.006Z,98325.03
2022-08-01T06:14:20.994Z,98325.16
2022-08-01T06:16:48.168Z,98334.28
2022-08-01T06:19:15.143Z,98331.16
2022-08-01T06:21:42.112Z,98335.28
2022-08-01T06:24:10.114Z,98341.44
2022-08-01T06:26:38.065Z,98332.88
2022-08-01T06:29:05.139Z,98331.44
2022-08-01T06:31:33.915Z,98332.84
2022-08-01T06:34:01.389Z,98327.56
2022-08-01T06:36:28.789Z,98335.63
2022-08-01T06:38:55.785Z,98328.50
2022-08-01T06:41:22.762Z,98329.63
2022-08-01T06:43:49.843Z,98331.44
2022-08-01T06:46:16.870Z,98333.34
2022-08-01T06:48:44.150Z,98335.63
2022-08-01T06:51:14.487Z,98334.34
2022-08-01T06:53:41.574Z,98341.66
2022-08-01T06:56:11.398Z,98337.97
2022-08-01T06:59:29.031Z,98343.53
2022-08-01T07:01:55.962Z,98332.66
2022-08-01T07:04:23.114Z,98343.94
2022-08-01T07:06:50.090Z,98333.00
2022-08-01T07:09:17.210Z,98341.25
2022-08-01T07:11:44.197Z,98339.63
2022-08-01T07:14:11.266Z,98331.16
2022-08-01T07:16:39.342Z,98340.06
2022-08-01T07:19:06.635Z,98332.88
2022-08-01T07:21:40.480Z,98328.72
2022-08-01T07:24:15.074Z,98325.31
2022-08-01T07:26:54.025Z,98319.88
2022-08-01T07:29:24.439Z,98332.75
2022-08-01T07:31:56.833Z,98325.13
2022-08-01T07:34:25.510Z,98333.19
2022-08-01T07:36:53.770Z,98332.81
2022-08-01T07:39:21.061Z,98324.25
2022-08-01T07:42:06.531Z,98321.78
2022-08-01T07:44:35.832Z,98321.19
2022-08-01T07:47:02.879Z,98321.31
2022-08-01T07:49:30.145Z,98316.41
2022-08-01T07:52:02.730Z,98319.34
2022-08-01T07:54:34.373Z,98321.59
2022-08-01T07:57:03.496Z,98314.16
2022-08-01T07:59:30.861Z,98314.06
2022-08-01T08:01:58.186Z,98320.16
2022-08-01T08:04:25.610Z,98316.31
2022-08-01T08:06:54.291Z,98322.56
2022-08-01T08:09:21.327Z,98325.31
2022-08-01T08:11:48.703Z,98315.88
2022-08-01T08:14:17.055Z,98321.38
2022-08-01T08:16:44.861Z,98317.00
2022-08-01T08:19:12.390Z,98322.78
2022-08-01T08:21:40.359Z,98327.94
2022-08-01T08:24:26.239Z,98325.97
2022-08-01T08:27:04.429Z,98318.13
2022-08-01T08:29:33.466Z,98316.09
2022-08-01T08:32:01.863Z,98314.56
2022-08-01T08:34:29.570Z,98314.69
2022-08-01T08:36:58.875Z,98324.38
2022-08-01T08:39:26.808Z,98317.78
2022-08-01T08:41:53.819Z,98315.13
2022-08-01T08:44:21.350Z,98320.78
2022-08-01T08:46:53.022Z,98317.41
2022-08-01T08:49:24.791Z,98316.38
2022-08-01T08:51:53.632Z,98311.28
2022-08-01T08:54:31.234Z,98314.53
2022-08-01T08:57:01.059Z,98313.41
2022-08-01T08:59:29.413Z,98315.03
2022-08-01T09:01:57.762Z,98314.34
2022-08-01T09:04:27.105Z,98305.44
2022-08-01T09:06:55.806Z,98307.75
2022-08-01T09:09:24.196Z,98309.94
2022-08-01T09:11:57.324Z,98307.56
2022-08-01T09:14:28.382Z,98307.94
2022-08-01T09:17:07.582Z,98300.97
2022-08-01T09:19:42.242Z,98309.94
2022-08-01T09:22:13.992Z,98308.81
2022-08-01T09:24:42.280Z,98319.06
2022-08-01T09:27:25.236Z,98311.78
2022-08-01T09:30:09.186Z,98311.56
2022-08-01T09:32:36.882Z,98314.25
2022-08-01T09:35:43.859Z,98314.50
2022-08-01T09:38:20.393Z,98321.06
2022-08-01T09:41:01.609Z,98321.03
2022-08-01T09:43:32.062Z,98313.91
2022-08-01T09:46:01.274Z,98320.38
2022-08-01T09:48:29.649Z,98314.75
2022-08-01T09:51:04.662Z,98319.31
2022-08-01T09:53:52.063Z,98315.91
2022-08-01T09:56:23.169Z,98321.81
2022-08-01T09:59:02.448Z,98316.66
2022-08-01T10:01:50.599Z,98316.63
2022-08-01T10:04:21.287Z,98323.41
2022-08-01T10:06:53.452Z,98308.63
2022-08-01T10:09:36.075Z,98307.00
2022-08-01T10:12:09.101Z,98302.13
2022-08-01T10:14:46.279Z,98318.91
2022-08-01T10:17:18.261Z,98304.03
2022-08-01T10:19:46.732Z,98310.81
2022-08-01T10:22:17.605Z,98298.66
2022-08-01T10:24:48.210Z,98302.72
2022-08-01T10:27:24.687Z,98310.50
2022-08-01T10:30:19.482Z,98295.38
2022-08-01T10:32:50.920Z,98287.00
2022-08-01T10:35:45.635Z,98290.75
2022-08-01T10:38:13.415Z,98285.66
2022-08-01T10:40:43.018Z,98290.81
2022-08-01T10:43:21.932Z,98284.88
2022-08-01T10:45:51.501Z,98285.66
2022-08-01T10:49:01.124Z,98280.22
2022-08-01T10:51:51.613Z,98287.03
2022-08-01T10:54:16.048Z,98279.19
2022-08-01T10:56:50.718Z,98282.28
2022-08-01T10:59:49.128Z,98287.31
2022-08-01T11:02:32.013Z,98288.38
2022-08-01T11:05:06.050Z,98279.13
2022-08-01T11:07:55.625Z,98277.78
2022-08-01T11:10:41.411Z,98278.81
2022-08-01T11:13:12.386Z,98269.28
2022-08-01T11:15:50.414Z,98261.59
2022-08-01T11:18:32.896Z,98269.09
2022-08-01T11:21:58.160Z,98274.81
2022-08-01T11:23:52.828Z,98266.59
2022-08-01T11:26:29.116Z,98267.03
2022-08-01T11:29:20.938Z,98255.06
2022-08-01T11:31:49.433Z,98251.78
2022-08-01T11:34:16.841Z,98247.69
2022-08-01T11:37:09.955Z,98249.88
2022-08-01T11:39:34.320Z,98244.81
2022-08-01T11:42:20.750Z,98242.47
2022-08-01T11:44:52.289Z,98230.97
2022-08-01T11:47:21.406Z,98239.72
2022-08-01T11:49:56.041Z,98233.09
2022-08-01T11:52:30.569Z,98234.78
2022-08-01T11:55:01.745Z,98233.22
2022-08-01T11:57:35.591Z,98234.78
2022-08-01T12:00:18.595Z,98229.41
2022-08-01T12:03:04.564Z,98233.16
2022-08-01T12:05:34.725Z,98231.84
2022-08-01T12:08:02.386Z,98226.00
2022-08-01T12:10:49.705Z,98221.91
2022-08-01T12:13:18.951Z,98222.50
2022-08-01T12:15:47.316Z,98227.03
2022-08-01T12:18:14.769Z,98225.47
2022-08-01T12:21:01.813Z,98212.91
2022-08-01T12:23:28.857Z,98218.72
2022-08-01T12:25:56.025Z,98216.13
2022-08-01T12:28:23.935Z,98204.09
2022-08-01T12:30:51.368Z,98214.84
2022-08-01T12:33:21.424Z,98214.38
2022-08-01T12:35:48.834Z,98210.34
2022-08-01T12:38:19.408Z,98205.41
2022-08-01T12:40:51.494Z,98203.31
2022-08-01T12:43:28.400Z,98195.91
2022-08-01T12:45:59.585Z,98195.59
2022-08-01T12:48:28.287Z,98199.63
2022-08-01T12:50:58.534Z,98204.03
2022-08-01T12:53:27.123Z,98213.81
2022-08-01T12:56:09.591Z,98194.69
2022-08-01T12:58:36.616Z,98199.84
2022-08-01T13:01:12.946Z,98197.53
2022-08-01T13:03:40.939Z,98198.78
2022-08-01T13:06:15.484Z,98197.69
2022-08-01T13:08:43.099Z,98189.38
2022-08-01T13:11:19.309Z,98198.25
2022-08-01T13:13:52.764Z,98184.28
2022-08-01T13:16:43.369Z,98190.97
2022-08-01T13:19:14.212Z,98182.69
2022-08-01T13:21:55.799Z,98175.09
2022-08-01T13:24:28.653Z,98183.91
2022-08-01T13:27:05.114Z,98184.44
2022-08-01T13:29:38.789Z,98180.25
2022-08-01T13:32:28.464Z,98187.13
2022-08-01T13:35:09.896Z,98183.06
2022-08-01T13:37:38.679Z,98175.34
2022-08-01T13:40:08.033Z,98168.41
2022-08-01T13:42:35.384Z,98182.75
2022-08-01T13:45:14.371Z,98173.88
2022-08-01T13:48:03.277Z,98174.50
2022-08-01T13:50:29.961Z,98184.78
2022-08-01T13:52:57.016Z,98176.78
2022-08-01T13:55:23.991Z,98184.97
2022-08-01T13:57:51.310Z,98170.41
2022-08-01T14:00:18.327Z,98187.00
2022-08-01T14:02:45.355Z,98169.88
2022-08-01T14:05:12.506Z,98161.19
2022-08-01T14:07:39.657Z,98170.41
2022-08-01T14:10:19.576Z,98164.31
2022-08-01T14:12:51.107Z,98166.59
2022-08-01T14:15:37.669Z,98164.13
2022-08-01T14:18:06.684Z,98168.94
2022-08-01T14:20:35.567Z,98169.13
2022-08-01T14:23:02.966Z,98173.97
2022-08-01T14:26:03.476Z,98179.22
2022-08-01T14:28:17.521Z,98176.94
2022-08-01T14:30:44.766Z,98164.28
2022-08-01T14:33:12.949Z,98159.13
2022-08-01T14:36:01.880Z,98159.03
2022-08-01T14:38:31.210Z,98163.47
2022-08-01T14:41:00.232Z,98161.25
2022-08-01T14:43:32.465Z,98156.16
2022-08-01T14:46:01.864Z,98158.78
2022-08-01T14:48:30.379Z,98164.31
2022-08-01T14:50:58.698Z,98176.25
2022-08-01T14:53:25.838Z,98164.38
2022-08-01T14:55:53.028Z,98167.22
2022-08-01T14:58:20.086Z,98158.66
2022-08-01T15:00:47.191Z,98172.03
2022-08-01T15:03:14.776Z,98155.69
2022-08-01T15:05:41.787Z,98154.53
2022-08-01T15:08:08.890Z,98158.34
2022-08-01T15:10:35.938Z,98166.72
2022-08-01T15:13:03.229Z,98165.78
2022-08-01T15:15:30.844Z,98162.69
2022-08-01T15:17:58.094Z,98161.50
2022-08-01T15:20:26.236Z,98164.31
2022-08-01T15:22:53.844Z,98171.19
2022-08-01T15:25:21.121Z,98160.53
2022-08-01T15:27:48.454Z,98156.97
2022-08-01T15:30:15.414Z,98160.41
2022-08-01T15:32:42.418Z,98158.53
2022-08-01T15:35:11.107Z,98165.69
2022-08-01T15:37:42.604Z,98166.03
2022-08-01T15:40:12.471Z,98173.91
2022-08-01T15:42:40.003Z,98174.41
2022-08-01T15:45:20.682Z,98176.09
2022-08-01T15:47:55.997Z,98179.56
2022-08-01T15:50:23.081Z,98174.03
2022-08-01T15:52:50.139Z,98180.03
2022-08-01T15:55:17.370Z,98179.66
2022-08-01T15:57:44.355Z,98167.00
2022-08-01T16:00:11.975Z,98170.13
2022-08-01T16:02:39.457Z,98163.72
2022-08-01T16:05:07.734Z,98167.41
2022-08-01T16:07:34.722Z,98164.66
2022-08-01T16:10:01.673Z,98167.00
2022-08-01T16:12:28.800Z,98160.09
2022-08-01T16:14:59.398Z,98157.88
2022-08-01T16:17:26.413Z,98164.16
2022-08-01T16:19:53.407Z,98161.09
2022-08-01T16:22:20.563Z,98166.59
2022-08-01T16:25:17.897Z,98161.53
2022-08-01T16:27:46.387Z,98158.19
2022-08-01T16:30:13.812Z,98152.06
2022-08-01T16:32:50.237Z,98155.66
2022-08-01T16:35:19.107Z,98150.06
2022-08-01T16:37:47.571Z,98156.16
2022-08-01T16:40:14.883Z,98155.19
2022-08-01T16:42:41.906Z,98158.16
2022-08-01T16:45:17.071Z,98167.78
2022-08-01T16:47:44.185Z,98169.53
2022-08-01T16:50:13.737Z,98170.19
2022-08-01T16:52:44.135Z,98175.44
2022-08-01T16:55:13.961Z,98183.56
2022-08-01T16:57:41.453Z,98177.25
2022-08-01T17:00:20.986Z,98187.41
2022-08-01T17:02:49.443Z,98182.81
2022-08-01T17:05:16.954Z,98176.03
2022-08-01T17:07:44.149Z,98181.69
2022-08-01T17:10:11.816Z,98179.91
2022-08-01T17:12:40.252Z,98181.22
2022-08-01T17:15:08.496Z,98183.03
2022-08-01T17:17:35.694Z,98185.78
2022-08-01T17:20:02.790Z,98186.41
2022-08-01T17:22:29.898Z,98190.63
2022-08-01T17:24:56.858Z,98197.63
2022-08-01T17:27:23.905Z,98192.78
2022-08-01T17:29:50.908Z,98198.34
2022-08-01T17:32:18.089Z,98193.66
2022-08-01T17:34:45.183Z,98197.91
2022-08-01T17:37:12.471Z,98196.22
2022-08-01T17:39:40.166Z,98199.78
2022-08-01T17:42:09.152Z,98203.88
2022-08-01T17:44:36.785Z,98202.19
2022-08-01T17:47:06.223Z,98205.50
2022-08-01T17:49:53.783Z,98214.31
2022-08-01T17:52:21.685Z,98208.59
2022-08-01T17:54:48.658Z,98214.00
2022-08-01T17:57:15.609Z,98201.38
2022-08-01T17:59:43.707Z,98212.41
2022-08-01T18:02:11.525Z,98214.00
2022-08-01T18:04:41.277Z,98220.75
2022-08-01T18:07:12.464Z,98218.25
2022-08-01T18:09:43.994Z,98216.13
2022-08-01T18:12:14.509Z,98231.03
2022-08-01T18:14:43.855Z,98231.25
2022-08-01T18:17:11.707Z,98237.94
2022-08-01T18:19:39.970Z,98229.34
2022-08-01T18:22:28.915Z,98239.09
2022-08-01T18:24:54.239Z,98224.78
2022-08-01T18:27:21.624Z,98227.88
2022-08-01T18:29:48.931Z,98221.91
2022-08-01T18:32:16.148Z,98229.91
2022-08-01T18:34:43.102Z,98227.84
2022-08-01T18:37:13.469Z,98226.31
2022-08-01T18:39:41.741Z,98222.28
2022-08-01T18:42:10.999Z,98228.03
2022-08-01T18:44:38.189Z,98237.88
2022-08-01T18:47:05.764Z,98228.91
2022-08-01T18:49:32.938Z,98226.25
2022-08-01T18:51:59.990Z,98234.22
2022-08-01T18:54:29.719Z,98236.19
2022-08-01T18:56:56.677Z,98238.81
2022-08-01T18:59:23.831Z,98228.75
2022-08-01T19:01:50.881Z,98235.06
2022-08-01T19:04:18.531Z,98242.94
2022-08-01T19:06:47.517Z,98237.72
2022-08-01T19:09:14.826Z,98240.50
2022-08-01T19:11:48.116Z,98243.28
2022-08-01T19:14:15.398Z,98246.00
2022-08-01T19:16:42.638Z,98258.19
2022-08-01T19:19:09.805Z,98251.72
2022-08-01T19:21:42.839Z,98260.03
2022-08-01T19:24:23.476Z,98260.69
2022-08-01T19:26:58.019Z,98260.81
2022-08-01T19:29:35.224Z,98262.66
2022-08-01T19:32:10.416Z,98257.69
2022-08-01T19:35:07.494Z,98259.84
2022-08-01T19:37:35.301Z,98262.56
2022-08-01T19:40:02.375Z,98262.44
2022-08-01T19:42:30.283Z,98266.81
2022-08-01T19:44:58.920Z,98266.38
2022-08-01T19:47:26.111Z,98274.78
2022-08-01T19:50:13.746Z,98278.59
2022-08-01T19:52:43.503Z,98277.75
2022-08-01T19:55:11.283Z,98277.16
2022-08-01T19:57:45.158Z,98286.41
2022-08-01T20:00:23.953Z,98296.63
2022-08-01T20:02:56.883Z,98302.34
2022-08-01T20:05:24.642Z,98308.47
2022-08-01T20:07:52.215Z,98319.03
2022-08-01T20:10:22.570Z,98327.19
2022-08-01T20:12:50.255Z,98324.66
2022-08-01T20:16:28.588Z,98325.69
2022-08-01T20:18:56.812Z,98324.22
2022-08-01T20:21:27.411Z,98324.94
2022-08-01T20:24:02.790Z,98338.91
2022-08-01T20:26:35.390Z,98346.41
2022-08-01T20:29:11.529Z,98345.75
2022-08-01T20:32:03.364Z,98350.16
2022-08-01T20:34:39.100Z,98349.31
2022-08-01T20:37:12.835Z,98350.13
2022-08-01T20:39:46.245Z,98354.31
2022-08-01T20:42:15.080Z,98345.97
2022-08-01T20:44:45.428Z,98345.25
2022-08-01T20:47:14.316Z,98351.22
2022-08-01T20:49:43.452Z,98363.78
2022-08-01T20:52:11.598Z,98370.50
2022-08-01T20:54:41.006Z,98367.94
2022-08-01T20:57:34.537Z,98380.56
2022-08-01T21:00:05.486Z,98388.66
2022-08-01T21:02:51.558Z,98391.34
2022-08-01T21:05:30.398Z,98384.78
2022-08-01T21:08:22.525Z,98377.63
2022-08-01T21:10:57.620Z,98381.50
2022-08-01T21:13:40.854Z,98378.28
2022-08-01T21:16:22.278Z,98370.63
2022-08-01T21:19:19.216Z,98372.50
2022-08-01T21:21:51.949Z,98362.63
2022-08-01T21:24:23.112Z,98375.66
2022-08-01T21:26:51.987Z,98380.69
2022-08-01T21:29:22.505Z,98385.91
2022-08-01T21:32:10.389Z,98390.78
2022-08-01T21:34:39.576Z,98381.34
2022-08-01T21:37:10.344Z,98384.28
2022-08-01T21:39:38.753Z,98383.78
2022-08-01T21:42:16.586Z,98382.94
2022-08-01T21:44:47.231Z,98386.47
2022-08-01T21:47:15.549Z,98383.13
2022-08-01T21:49:42.715Z,98390.28
2022-08-01T21:52:18.193Z,98382.09
2022-08-01T21:55:34.921Z,98388.91
2022-08-01T21:58:57.578Z,98402.97
2022-08-01T22:01:52.196Z,98401.91
2022-08-01T22:04:34.240Z,98409.19
2022-08-01T22:07:03.011Z,98410.84
2022-08-01T22:09:30.931Z,98407.88
2022-08-01T22:12:04.467Z,98404.28
2022-08-01T22:14:33.776Z,98406.97
2022-08-01T22:17:01.630Z,98396.16
2022-08-01T22:19:45.716Z,98392.44
2022-08-01T22:22:44.550Z,98396.19
2022-08-01T22:25:02.636Z,98396.97
2022-08-01T22:28:06.149Z,98396.53
2022-08-01T22:30:18.682Z,98396.50
2022-08-01T22:33:15.831Z,98396.22
2022-08-01T22:35:35.999Z,98387.75
2022-08-01T22:38:07.051Z,98391.94
2022-08-01T22:40:46.000Z,98393.69
2022-08-01T22:43:40.059Z,98396.63
2022-08-01T22:46:44.099Z,98394.63
2022-08-01T22:49:35.846Z,98387.84
2022-08-01T22:52:28.303Z,98402.72
2022-08-01T22:55:04.682Z,98392.81
2022-08-01T22:57:50.073Z,98398.88
2022-08-01T23:00:17.967Z,98404.88
2022-08-01T23:02:48.417Z,98405.16
2022-08-01T23:05:22.964Z,98398.03
2022-08-01T23:07:53.299Z,98408.81
2022-08-01T23:10:26.050Z,98410.09
2022-08-01T23:12:54.821Z,98400.03
2022-08-01T23:15:25.137Z,98405.88
2022-08-01T23:17:53.427Z,98401.38
2022-08-01T23:20:20.589Z,98398.78
2022-08-01T23:22:49.471Z,98396.34
2022-08-01T23:25:17.263Z,98398.63
2022-08-01T23:27:57.882Z,98394.22
2022-08-01T23:30:34.561Z,98393.59
2022-08-01T23:33:01.708Z,98394.19
2022-08-01T23:35:29.928Z,98398.66
2022-08-01T23:37:58.451Z,98387.03
2022-08-01T23:40:30.749Z,98391.38
2022-08-01T23:42:58.186Z,98388.09
2022-08-01T23:45:25.240Z,98377.28
2022-08-01T23:47:52.608Z,98381.09
2022-08-01T23:50:22.079Z,98376.22
2022-08-01T23:52:53.676Z,98384.59
2022-08-01T23:55:26.681Z,98375.56
2022-08-01T23:58:06.061Z,98378.91
